• Join FlightAware (Why Join?)
  • Login
  • US Flag 
01:40AM EDT


 

Airport Tracker/Info


-or-


 

Live Flight TrackerFlight Track Log ✈ TCF3559 ✈ 26-Apr-2013 ✈ KDEN - KCLE

Flight Track Log - Related Links

Times and Time Zones

All times are in EDT time to prevent confusion due to time zone crossing. See the TCF3559 flight status page for this flight to view local times or setup timezone preferences in your user account.

Time Position Orientation Groundspeed Altitude Reporting Facility
EDT Latitude Longitude Course Direction KTS MPH feet Rate Location/Type
10:10PM 39.8833 -104.5667 80° East 196 226 7,100  Level Denver TRACON
10:11PM 39.8833 -104.4667 90° East 271 312 8,500 1,800 Climbing Denver TRACON
10:12PM 39.8667 -104.0449 90° East  Level FlightAware Approximate
10:12PM 39.8739 -104.3889 99° East 284 327 10,300  Level Denver Center
10:13PM 39.8667 -103.8891 90° East  Level FlightAware Approximate
10:13PM 39.8736 -104.2781 90° East 310 357 12,000  Level Denver Center
10:14PM 39.8825 -103.7366 72° East  Level FlightAware Approximate
10:14PM 39.8736 -104.1483 90° East 331 381 14,200  Level Denver Center
10:15PM 39.8935 -103.5815 85° East  Level FlightAware Approximate
10:15PM 39.8947 -104.0264 77° East 343 395 15,900  Level Denver Center
10:16PM 39.9076 -103.4269 80° East  Level FlightAware Approximate
10:16PM 39.9197 -103.8925 76° East 380 437 17,400  Level Denver Center
10:17PM 39.9481 -103.7439 76° East 395 455 19,400 1,980 Climbing Denver Center
10:18PM 39.9714 -103.6267 75° East 388 447 21,500 1,980 Climbing Denver Center
10:19PM 40.0006 -103.4600 77° East 399 459 23,600 1,680 Climbing Denver Center
10:20PM 40.0269 -103.3131 77° East 411 473 25,100 1,440 Climbing Denver Center
10:21PM 40.0556 -103.1625 76° East 421 484 26,600 1,260 Climbing Denver Center
10:22PM 40.0772 -103.0364 77° East 424 488 27,700 1,080 Climbing Denver Center
10:23PM 40.1103 -102.8569 76° East 431 496 28,900 1,020 Climbing Denver Center
10:24PM 40.1389 -102.6822 78° East 441 507 29,900 780 Climbing Denver Center
10:25PM 40.1661 -102.5303 77° East 448 516 30,600 900 Climbing Denver Center
10:26PM 40.1969 -102.3542 77° East 447 514 31,800 900 Climbing Denver Center
10:27PM 40.2228 -102.2028 77° East 447 514 32,500 660 Climbing Denver Center
10:28PM 40.2522 -102.0258 78° East 446 513 33,200 660 Climbing Denver Center
10:29PM 40.2786 -101.8736 77° East 448 516 33,900 720 Climbing Denver Center
10:31PM 40.3083 -101.6978 77° East 445 512 34,700 480 Climbing Denver Center
10:32PM 40.3339 -101.5458 78° East 448 516 35,000 120 Climbing Denver Center
10:33PM 40.3597 -101.3919 78° East 452 520 35,000  Level Denver Center
10:34PM 40.3881 -101.2125 78° East 452 520 35,000  Level Denver Center
10:35PM 40.4133 -101.0589 78° East 453 521 35,000  Level Denver Center
10:36PM 40.4411 -100.8794 78° East 454 522 35,000  Level Denver Center
10:37PM 40.4658 -100.7261 78° East 452 520 35,000  Level Denver Center
10:38PM 40.4933 -100.5453 79° East 455 524 35,000  Level Denver Center
10:39PM 40.5169 -100.3917 79° East 453 521 35,000  Level Denver Center
10:40PM 40.5453 -100.2106 78° East 454 522 35,000  Level Denver Center
10:41PM 40.5683 -100.0561 79° East 453 521 35,000  Level Denver Center
10:42PM 40.5958 -99.8742 79° East 454 522 35,000  Level Denver Center
10:43PM 40.6183 -99.7256 79° East 457 526 35,000  Level Denver Center
10:44PM 40.6422 -99.5628 79° East 456 525 35,000  Level Denver Center
10:45PM 40.6761 -99.3339 79° East 455 524 35,000  Level Denver Center
10:46PM 40.6994 -99.1683 79° East 461 531 35,000  Level Denver Center
10:47PM 40.7222 -99.0033 80° East 462 532 35,000  Level Minneapolis Center
10:48PM 40.7458 -98.8378 79° East 464 534 35,000  Level Minneapolis Center
10:49PM 40.7675 -98.6728 80° East 464 534 35,000  Level Minneapolis Center
10:50PM 40.7908 -98.5061 79° East 464 534 35,000  Level Minneapolis Center
10:51PM 40.8131 -98.3403 80° East 464 534 35,000  Level Minneapolis Center
10:52PM 40.8361 -98.1736 80° East 465 535 35,000  Level Minneapolis Center
10:53PM 40.8589 -98.0072 80° East 464 534 35,000  Level Minneapolis Center
10:54PM 40.8897 -97.7717 80° East 465 535 35,000  Level Minneapolis Center
10:56PM 40.9111 -97.6047 80° East 464 534 35,000  Level Minneapolis Center
10:57PM 40.9364 -97.4031 81° East 464 534 35,000  Level Minneapolis Center
10:58PM 40.9567 -97.2319 81° East 465 535 35,000  Level Minneapolis Center
10:59PM 40.9783 -97.0617 80° East 468 539 35,000  Level Minneapolis Center
11:00PM 40.9994 -96.8917 81° East 469 540 35,000  Level Minneapolis Center
11:01PM 41.0242 -96.6897 81° East 466 536 35,000  Level Minneapolis Center
11:02PM 41.0453 -96.5217 80° East 465 535 35,000  Level Minneapolis Center
11:03PM 41.0656 -96.3522 81° East 466 536 35,000  Level Minneapolis Center
11:04PM 41.0844 -96.1836 81° East 467 537 35,000  Level Minneapolis Center
11:05PM 41.1078 -95.9808 81° East 469 540 35,000  Level Minneapolis Center
11:06PM 41.1286 -95.8042 81° East 471 542 35,000  Level Minneapolis Center
11:07PM 41.1472 -95.6333 82° East 469 540 35,000  Level Minneapolis Center
11:08PM 41.1639 -95.4725 82° East 469 540 35,000  Level Minneapolis Center
11:09PM 41.1833 -95.3025 81° East 469 540 35,000  Level Minneapolis Center
11:10PM 41.2017 -95.1311 82° East 469 540 35,000  Level Minneapolis Center
11:11PM 41.2181 -94.9589 83° East 472 543 35,000  Level Minneapolis Center
11:12PM 41.2394 -94.7533 82° East 470 541 35,000  Level Minneapolis Center
11:13PM 41.2561 -94.5803 83° East 472 543 35,000  Level Minneapolis Center
11:14PM 41.2733 -94.4072 82° East 473 544 35,000  Level Minneapolis Center
11:15PM 41.2903 -94.2356 82° East 471 542 35,000  Level Minneapolis Center
11:16PM 41.3064 -94.0692 83° East 473 544 35,000  Level Minneapolis Center
11:17PM 41.3233 -93.8969 82° East 473 544 35,000  Level Minneapolis Center
11:18PM 41.3386 -93.7236 83° East 474 545 35,000  Level Minneapolis Center
11:19PM 41.3553 -93.5511 83° East 474 545 35,000  Level Minneapolis Center
11:20PM 41.3764 -93.3381 82° East 482 555 35,000  Level Minneapolis Center
11:21PM 41.3919 -93.1636 83° East 480 552 35,000  Level Minneapolis Center
11:22PM 41.4075 -92.9892 83° East 478 550 35,000  Level Minneapolis Center
11:23PM 41.4222 -92.8128 84° East 479 551 35,000  Level Minneapolis Center
11:25PM 41.4375 -92.6375 83° East 479 551 35,000  Level Minneapolis Center
11:26PM 41.4525 -92.4586 84° East 481 554 35,000  Level Chicago Center
11:27PM 41.4678 -92.2706 84° East 484 557 35,000  Level Chicago Center
11:28PM 41.4819 -92.0942 84° East 484 557 35,000  Level Chicago Center
11:29PM 41.4989 -91.8817 84° East 487 560 35,000  Level Chicago Center
11:30PM 41.5128 -91.7053 84° East 485 558 35,000  Level Chicago Center
11:31PM 41.5375 -91.5306 79° East 488 562 35,000  Level Chicago Center
11:32PM 41.5739 -91.3550 74° East 495 570 35,000  Level Chicago Center
11:33PM 41.6086 -91.1858 75° East 485 558 35,000  Level Chicago Center
11:34PM 41.6439 -91.0117 75° East 487 560 35,000  Level Chicago Center
11:35PM 41.6761 -90.8361 76° East 491 565 35,000  Level Chicago Center
11:36PM 41.6897 -90.6592 84° East 486 559 35,000  Level Chicago Center
11:37PM 41.7047 -90.4697 84° East 490 564 35,000  Level Chicago Center
11:38PM 41.7189 -90.2850 84° East 496 571 35,000  Level Chicago Center
11:39PM 41.7336 -90.1047 84° East 488 562 35,000  Level Chicago Center
11:40PM 41.7478 -89.9211 84° East 492 566 35,000  Level Chicago Center
11:41PM 41.7614 -89.7369 84° East 495 570 35,000  Level Chicago Center
11:42PM 41.7764 -89.5419 84° East 494 568 35,000  Level Chicago Center
11:43PM 41.7886 -89.3572 85° East 497 572 35,000  Level Chicago Center
11:44PM 41.8006 -89.1753 85° East 496 571 35,000  Level Chicago Center
11:45PM 41.8128 -88.9897 85° East 500 575 35,000  Level Chicago Center
11:46PM 41.8258 -88.8061 84° East 499 574 35,000  Level Chicago Center
11:47PM 41.8378 -88.6178 85° East 506 582 35,000  Level Chicago Center
11:48PM 41.8494 -88.4308 85° East 504 580 35,000  Level Chicago Center
11:49PM 41.8608 -88.2433 85° East 504 580 35,000  Level Chicago Center
11:50PM 41.8731 -88.0183 86° East 503 579 35,000  Level Chicago Center
11:51PM 41.8842 -87.8328 85° East 498 573 35,000  Level Chicago Center
11:52PM 41.8811 -87.6464 91° East 499 574 35,000  Level Chicago Center
11:53PM 41.8700 -87.4597 95° East 502 578 35,000  Level Chicago Center
11:54PM 41.8589 -87.2706 94° East 510 587 35,000  Level Chicago Center
11:55PM 41.8478 -87.0839 95° East 505 581 35,000  Level Chicago Center
11:56PM 41.8361 -86.8969 95° East 506 582 35,000  Level Chicago Center
11:57PM 41.8261 -86.7128 94° East 500 575 35,000  Level Chicago Center
11:58PM 41.8119 -86.5219 96° East 517 595 35,000  Level Chicago Center
11:59PM 41.7992 -86.3333 95° East 512 589 35,000  Level Chicago Center
12:00AM 41.7867 -86.1453 95° East 509 586 35,000  Level Chicago Center
12:01AM 41.7736 -85.9583 95° East 506 582 35,000  Level Chicago Center
12:02AM 41.7600 -85.7669 95° East 512 589 35,000  Level Chicago Center
12:03AM 41.7467 -85.5761 95° East 513 590 35,000  Level Chicago Center
12:04AM 41.7303 -85.3789 96° East 512 589 35,000  Level Chicago Center
12:05AM 41.7169 -85.1814 95° East 520 598 35,000  Level Chicago Center
12:06AM 41.7053 -85.0144 95° East 514 592 35,000  Level Cleveland Center
12:07AM 41.6894 -84.8269 96° East 514 592 35,000  Level Cleveland Center
12:08AM 41.6736 -84.6339 96° East 514 592 35,000  Level Cleveland Center
12:09AM 41.6572 -84.4467 97° East 514 592 35,000 -360 Level Cleveland Center
12:10AM 41.6428 -84.2511 96° East 519 597 34,300 -1,200 Descending Cleveland Center
12:11AM 41.6217 -84.0556 98° East 524 603 32,700 -1,560 Descending Cleveland Center
12:12AM 41.6044 -83.8631 97° East 524 603 31,200 -1,680 Descending Cleveland Center
12:13AM 41.5869 -83.6675 97° East 524 603 29,400 -1,800 Descending Cleveland Center
12:14AM 41.5708 -83.4892 97° East 518 596 27,700 -1,680 Descending Cleveland Center
12:15AM 41.5561 -83.3192 97° East 485 558 26,100 -1,740 Descending Cleveland Center
12:16AM 41.5372 -83.1492 98° East 466 536 24,300 -1,680 Descending Cleveland Center
12:17AM 41.5258 -83.0044 96° East 454 522 22,800 -1,740 Descending Cleveland Center
12:17AM 41.5153 -82.9042 98° East 434 499 21,600 -1,920 Descending Cleveland Center
12:18AM 41.5103 -82.8486 97° East 435 501 20,900 -1,980 Descending Cleveland Center
12:18AM 41.5011 -82.7761 100° East 414 476 20,000 -1,920 Descending Cleveland Center
12:19AM 41.4922 -82.6956 98° East 423 487 19,000 -2,280 Descending Cleveland Center
12:19AM 41.4786 -82.6369 107° East 408 470 18,000 -2,100 Descending Cleveland Center
12:20AM 41.4636 -82.5533 103° East 400 460 16,900 -1,980 Descending Cleveland Center
12:20AM 41.4478 -82.5000 112° Southeast 386 444 16,000 -2,520 Descending Cleveland Center
12:21AM 41.4344 -82.4306 104° East 369 425 14,400 -2,700 Descending Cleveland Center
12:21AM 41.4225 -82.3831 109° East 302 348 13,300 -3,240 Descending Cleveland Center
12:22AM 41.4089 -82.3161 105° East 325 374 11,200 -3,240 Descending Cleveland Center
12:22AM 41.3992 -82.2772 108° East 300 345 10,100 -2,940 Descending Cleveland Center
12:23AM 41.3836 -82.2050 106° East 298 343 8,300 -2,760 Descending Cleveland Center
12:23AM 41.3756 -82.1797 113° Southeast 271 312 7,300 -2,940 Descending Cleveland Center
12:24AM 41.3639 -82.1103 103° East 276 318 5,400 -3,120 Descending Cleveland Center
12:24AM 41.3561 -82.0769 107° East 260 299 4,200 -2,400 Descending Cleveland Center
12:25AM 41.3422 -82.0214 108° East 259 298 3,000 -1,320 Descending Cleveland Center
12:25AM 41.3364 -81.9936 106° East 221 254 2,900 -600 Descending Cleveland Center
12:26AM 41.3472 -81.9550 69° East 189 217 2,400 -840 Descending Cleveland Center
12:26AM 41.3600 -81.9386 44° Northeast 157 181 2,100 -900 Descending Cleveland Center
12:27AM 41.3769 -81.9086 53° Northeast 166 191 1,500 -840 Descending Cleveland Center
12:27AM 41.3875 -81.8978 38° Northeast 140 161 1,300 -540 Descending Cleveland Center